Time;durP1;ratioP1;P1;durP2;ratioP2;P2;SDS_P1;SDS_P2;PMS_P1;PMS_P2;Temp;Humidity;BMP_temperature;BMP_pressure;BME280_temperature;BME280_humidity;BME280_pressure;Samples;Min_cycle;Max_cycle;Signal;HPM_P1;HPM_P2
2022/02/25 00:00:51;;;;;;;1.47;0.40;;;;;;;;;;5037602;28;20194;-82
2022/02/25 00:03:17;;;;;;;1.60;0.33;;;;;;;;;;5037214;28;20199;-82
2022/02/25 00:05:43;;;;;;;1.80;0.40;;;;;;;;;;5018876;28;20187;-82
2022/02/25 00:08:10;;;;;;;0.40;0.30;;;;;;;;;;5018635;28;20183;-81
2022/02/25 00:10:36;;;;;;;1.43;0.60;;;;;;;;;;5032808;28;20211;-81
2022/02/25 00:13:02;;;;;;;1.10;0.80;;;;;;;;;;5036586;28;20210;-81
2022/02/25 00:15:29;;;;;;;0.50;0.40;;;;;;;;;;5036783;28;20577;-81
2022/02/25 00:17:55;;;;;;;0.60;0.37;;;;;;;;;;5036841;28;20189;-82
2022/02/25 00:20:21;;;;;;;0.83;0.40;;;;;;;;;;5036395;28;20190;-81
2022/02/25 00:22:47;;;;;;;0.73;0.40;;;;;;;;;;5036106;28;20245;-81
2022/02/25 00:25:13;;;;;;;5.13;0.60;;;;;;;;;;5035548;28;20183;-82
2022/02/25 00:27:40;;;;;;;0.33;0.33;;;;;;;;;;5035473;28;20198;-82
2022/02/25 00:30:07;;;;;;;1.50;0.90;;;;;;;;;;5017968;28;20176;-81
2022/02/25 00:32:33;;;;;;;2.10;0.50;;;;;;;;;;5030954;28;20199;-82
2022/02/25 00:34:59;;;;;;;0.70;0.50;;;;;;;;;;5017949;28;20631;-81
2022/02/25 00:37:25;;;;;;;2.20;0.57;;;;;;;;;;5036022;28;20662;-82
2022/02/25 00:39:51;;;;;;;1.43;0.57;;;;;;;;;;5035714;28;20198;-81
2022/02/25 00:42:17;;;;;;;1.10;0.70;;;;;;;;;;5002004;28;20252;-82
2022/02/25 00:44:43;;;;;;;2.00;0.53;;;;;;;;;;5036678;28;20190;-81
2022/02/25 00:47:09;;;;;;;1.67;0.53;;;;;;;;;;5038697;28;20183;-82
2022/02/25 00:49:35;;;;;;;2.23;0.60;;;;;;;;;;5038900;28;20188;-81
2022/02/25 00:52:01;;;;;;;1.33;0.60;;;;;;;;;;5039016;28;20252;-82
2022/02/25 00:54:27;;;;;;;2.10;0.60;;;;;;;;;;5037653;28;20278;-82
2022/02/25 00:56:53;;;;;;;4.10;1.03;;;;;;;;;;5036926;28;20179;-82
2022/02/25 00:59:19;;;;;;;1.63;0.63;;;;;;;;;;5037359;28;20205;-82
2022/02/25 01:01:46;;;;;;;1.17;0.50;;;;;;;;;;5018617;28;20200;-81
2022/02/25 01:04:12;;;;;;;2.60;0.93;;;;;;;;;;5036162;28;20229;-82
2022/02/25 01:06:38;;;;;;;2.13;0.50;;;;;;;;;;5018644;28;20179;-81
2022/02/25 01:09:04;;;;;;;1.70;0.60;;;;;;;;;;5017882;28;20230;-81
2022/02/25 01:11:30;;;;;;;5.90;0.80;;;;;;;;;;5006354;28;20191;-82
2022/02/25 01:13:56;;;;;;;3.97;0.60;;;;;;;;;;5017901;28;20179;-81
2022/02/25 01:16:23;;;;;;;4.13;0.83;;;;;;;;;;5036015;28;20187;-81
2022/02/25 01:18:49;;;;;;;1.70;0.70;;;;;;;;;;5017469;28;20178;-81
2022/02/25 01:21:15;;;;;;;1.77;0.70;;;;;;;;;;5018160;28;20175;-81
2022/02/25 01:23:41;;;;;;;1.20;0.60;;;;;;;;;;5035239;28;20203;-81
2022/02/25 01:26:08;;;;;;;1.63;0.70;;;;;;;;;;5035891;28;20177;-81
2022/02/25 01:28:34;;;;;;;1.33;0.63;;;;;;;;;;5035358;28;20186;-81
2022/02/25 01:31:04;;;;;;;2.77;0.80;;;;;;;;;;5036381;28;20185;-82
2022/02/25 01:33:30;;;;;;;1.63;0.80;;;;;;;;;;5035660;28;20207;-81
2022/02/25 01:35:56;;;;;;;3.83;0.73;;;;;;;;;;5034917;28;20206;-82
2022/02/25 01:38:22;;;;;;;1.50;0.70;;;;;;;;;;5035524;28;20184;-82
2022/02/25 01:40:53;;;;;;;1.00;0.50;;;;;;;;;;5034762;28;20260;-81
2022/02/25 01:43:19;;;;;;;1.63;0.80;;;;;;;;;;5035056;28;20270;-81
2022/02/25 01:45:45;;;;;;;1.20;0.50;;;;;;;;;;5017066;28;20294;-81
2022/02/25 01:48:11;;;;;;;1.07;0.50;;;;;;;;;;5016965;28;20665;-82
2022/02/25 01:50:37;;;;;;;1.60;0.67;;;;;;;;;;5034861;28;20188;-81
2022/02/25 01:53:07;;;;;;;0.83;0.30;;;;;;;;;;5034999;28;20198;-81
2022/02/25 01:55:34;;;;;;;0.80;0.50;;;;;;;;;;5035767;28;20179;-81
2022/02/25 01:58:00;;;;;;;3.23;0.70;;;;;;;;;;5036997;28;20215;-81
2022/02/25 02:00:27;;;;;;;2.17;0.63;;;;;;;;;;5032573;28;20202;-80
2022/02/25 02:02:53;;;;;;;2.73;0.63;;;;;;;;;;5034621;28;20228;-81
2022/02/25 02:05:20;;;;;;;3.67;0.70;;;;;;;;;;5035796;28;20616;-81
2022/02/25 02:07:46;;;;;;;0.97;0.60;;;;;;;;;;5036464;28;20201;-81
2022/02/25 02:10:12;;;;;;;1.57;0.70;;;;;;;;;;5036704;28;20325;-81
2022/02/25 02:12:38;;;;;;;3.83;0.80;;;;;;;;;;5036272;28;20713;-81
2022/02/25 02:15:04;;;;;;;1.50;0.90;;;;;;;;;;5018102;28;20662;-80
2022/02/25 02:17:31;;;;;;;2.30;0.50;;;;;;;;;;5036575;28;20220;-81
2022/02/25 02:19:57;;;;;;;1.57;0.57;;;;;;;;;;5037509;28;20207;-81
2022/02/25 02:22:24;;;;;;;1.00;0.67;;;;;;;;;;5020203;28;20196;-81
2022/02/25 02:24:50;;;;;;;1.63;0.60;;;;;;;;;;5038073;28;20189;-81
2022/02/25 02:27:16;;;;;;;3.00;1.07;;;;;;;;;;5037304;28;20175;-81
2022/02/25 02:29:42;;;;;;;3.77;0.60;;;;;;;;;;5036543;28;20635;-81
2022/02/25 02:32:08;;;;;;;1.53;0.97;;;;;;;;;;5022132;28;20209;-81
2022/02/25 02:34:34;;;;;;;1.83;0.77;;;;;;;;;;5037427;28;20180;-81
2022/02/25 02:37:00;;;;;;;4.03;1.10;;;;;;;;;;5039516;28;20221;-81
2022/02/25 02:39:27;;;;;;;2.73;0.70;;;;;;;;;;5038756;28;20218;-81
2022/02/25 02:41:53;;;;;;;1.70;0.60;;;;;;;;;;5038809;28;20199;-81
2022/02/25 02:44:19;;;;;;;2.30;0.67;;;;;;;;;;5019842;28;20669;-81
2022/02/25 02:46:45;;;;;;;2.67;0.70;;;;;;;;;;5019896;28;20199;-81
2022/02/25 02:49:11;;;;;;;3.10;0.77;;;;;;;;;;5037841;28;20187;-81
2022/02/25 02:51:37;;;;;;;0.90;0.40;;;;;;;;;;5037431;28;20187;-81
2022/02/25 02:54:03;;;;;;;3.03;0.80;;;;;;;;;;5038224;28;20198;-81
2022/02/25 02:56:29;;;;;;;4.47;1.07;;;;;;;;;;5037845;28;20181;-81
2022/02/25 02:58:58;;;;;;;2.80;0.80;;;;;;;;;;5037936;28;20183;-81
2022/02/25 03:01:25;;;;;;;1.27;0.67;;;;;;;;;;5037376;28;20175;-81
2022/02/25 03:03:51;;;;;;;1.77;0.50;;;;;;;;;;5012969;28;20182;-81
2022/02/25 03:06:17;;;;;;;2.37;0.70;;;;;;;;;;5032912;28;20649;-81
2022/02/25 03:08:43;;;;;;;3.27;0.63;;;;;;;;;;5037487;28;20597;-81
2022/02/25 03:11:10;;;;;;;2.33;0.80;;;;;;;;;;5020981;28;20187;-81
2022/02/25 03:13:36;;;;;;;2.60;0.60;;;;;;;;;;5020667;28;20197;-81
2022/02/25 03:16:02;;;;;;;3.00;0.73;;;;;;;;;;5038387;28;20552;-81
2022/02/25 03:18:28;;;;;;;2.10;0.90;;;;;;;;;;5020780;28;20184;-81
2022/02/25 03:20:54;;;;;;;3.53;0.77;;;;;;;;;;5036787;28;20574;-81
2022/02/25 03:23:20;;;;;;;3.63;0.70;;;;;;;;;;5036541;28;20202;-81
2022/02/25 03:25:46;;;;;;;1.73;0.50;;;;;;;;;;5016641;28;20176;-81
2022/02/25 03:28:12;;;;;;;3.53;0.70;;;;;;;;;;5017743;28;20595;-81
2022/02/25 03:30:38;;;;;;;1.40;0.87;;;;;;;;;;5018592;28;20196;-81
2022/02/25 03:33:04;;;;;;;2.40;0.83;;;;;;;;;;5017686;28;20201;-81
2022/02/25 03:35:32;;;;;;;3.07;0.80;;;;;;;;;;5034949;28;20184;-81
2022/02/25 03:37:58;;;;;;;5.60;0.70;;;;;;;;;;5037717;28;20242;-81
2022/02/25 03:40:27;;;;;;;2.40;0.50;;;;;;;;;;5036324;28;20198;-81
2022/02/25 03:42:53;;;;;;;5.73;0.70;;;;;;;;;;5019069;28;20203;-81
2022/02/25 03:45:19;;;;;;;1.57;0.70;;;;;;;;;;5036761;28;20279;-81
2022/02/25 03:47:45;;;;;;;3.97;0.80;;;;;;;;;;5036574;28;20171;-81
2022/02/25 03:50:11;;;;;;;1.87;0.73;;;;;;;;;;5036717;28;20179;-81
2022/02/25 03:52:37;;;;;;;1.83;0.63;;;;;;;;;;5018677;28;20238;-81
2022/02/25 03:55:04;;;;;;;2.13;0.70;;;;;;;;;;5018477;28;20182;-81
2022/02/25 03:57:31;;;;;;;1.40;0.57;;;;;;;;;;5036394;28;20183;-81
2022/02/25 03:59:57;;;;;;;1.73;0.80;;;;;;;;;;5035604;28;20219;-81
2022/02/25 04:02:23;;;;;;;3.03;0.93;;;;;;;;;;5035590;28;20202;-81
2022/02/25 04:04:49;;;;;;;1.03;0.60;;;;;;;;;;5035481;28;20725;-81
2022/02/25 04:07:15;;;;;;;1.20;0.80;;;;;;;;;;5035810;28;20178;-81
2022/02/25 04:09:42;;;;;;;2.33;0.70;;;;;;;;;;5035568;28;20241;-81
2022/02/25 04:12:08;;;;;;;2.17;0.97;;;;;;;;;;5036108;28;20269;-81
2022/02/25 04:14:36;;;;;;;1.00;0.70;;;;;;;;;;5035564;28;20186;-80
2022/02/25 04:17:02;;;;;;;2.00;0.87;;;;;;;;;;5035177;28;20185;-81
2022/02/25 04:19:28;;;;;;;3.23;1.00;;;;;;;;;;5035854;28;20210;-81
2022/02/25 04:21:54;;;;;;;2.10;0.80;;;;;;;;;;5034696;28;20287;-81
2022/02/25 04:24:20;;;;;;;2.93;0.70;;;;;;;;;;5035254;28;20237;-81
2022/02/25 04:26:46;;;;;;;2.57;0.73;;;;;;;;;;5034981;28;20208;-81
2022/02/25 04:29:12;;;;;;;2.53;1.07;;;;;;;;;;5035270;28;20594;-81
2022/02/25 04:31:38;;;;;;;6.47;1.10;;;;;;;;;;5034495;28;20655;-81
2022/02/25 04:34:05;;;;;;;2.47;0.77;;;;;;;;;;5035166;28;20180;-81
2022/02/25 04:36:33;;;;;;;2.10;0.77;;;;;;;;;;5017478;28;20562;-81
2022/02/25 04:38:59;;;;;;;1.40;0.77;;;;;;;;;;5038788;28;20184;-81
2022/02/25 04:41:25;;;;;;;1.50;0.70;;;;;;;;;;5037945;28;20178;-81
2022/02/25 04:43:51;;;;;;;2.33;1.13;;;;;;;;;;5036241;28;20601;-81
2022/02/25 04:46:18;;;;;;;2.13;1.10;;;;;;;;;;5018636;28;20778;-81
2022/02/25 04:48:44;;;;;;;2.40;0.90;;;;;;;;;;5018508;28;20179;-81
2022/02/25 04:51:10;;;;;;;3.53;1.00;;;;;;;;;;5036300;28;20669;-81
2022/02/25 04:53:36;;;;;;;2.33;0.87;;;;;;;;;;5036558;28;20289;-82
2022/02/25 04:56:02;;;;;;;4.33;1.50;;;;;;;;;;5036342;28;20214;-81
2022/02/25 04:58:30;;;;;;;2.13;1.10;;;;;;;;;;5018154;28;20183;-82
2022/02/25 05:00:56;;;;;;;3.63;1.10;;;;;;;;;;5017985;28;20579;-81
2022/02/25 05:03:22;;;;;;;3.17;1.23;;;;;;;;;;5035969;28;20277;-81
2022/02/25 05:05:48;;;;;;;2.20;1.00;;;;;;;;;;5017856;28;20205;-81
2022/02/25 05:08:15;;;;;;;2.00;1.10;;;;;;;;;;5034057;28;20180;-81
2022/02/25 05:10:41;;;;;;;2.40;1.03;;;;;;;;;;5034515;28;20187;-81
2022/02/25 05:13:07;;;;;;;2.27;1.20;;;;;;;;;;5030238;28;20698;-81
2022/02/25 05:21:02;;;;;;;2.00;1.20;;;;;;;;;;5035399;28;20282;-80
2022/02/25 05:23:28;;;;;;;2.40;1.30;;;;;;;;;;5035080;28;20199;-80
2022/02/25 05:25:54;;;;;;;2.83;1.40;;;;;;;;;;5016869;28;20186;-80
2022/02/25 05:28:20;;;;;;;4.90;1.30;;;;;;;;;;5031003;28;20197;-80
2022/02/25 05:30:46;;;;;;;3.07;1.37;;;;;;;;;;5017409;28;20190;-81
2022/02/25 05:33:12;;;;;;;2.97;1.40;;;;;;;;;;5037122;28;20196;-80
2022/02/25 05:35:38;;;;;;;5.43;1.50;;;;;;;;;;5020583;28;20175;-80
2022/02/25 05:38:05;;;;;;;2.10;1.30;;;;;;;;;;5020727;28;20172;-80
2022/02/25 05:40:31;;;;;;;2.63;1.37;;;;;;;;;;5020448;28;20206;-80
2022/02/25 05:42:57;;;;;;;3.57;1.53;;;;;;;;;;5020041;28;20202;-80
2022/02/25 05:45:23;;;;;;;3.90;1.50;;;;;;;;;;5020777;28;20240;-81
2022/02/25 05:47:49;;;;;;;4.90;1.87;;;;;;;;;;5038485;28;20649;-81
2022/02/25 05:50:16;;;;;;;3.60;1.40;;;;;;;;;;5038162;28;20270;-80
2022/02/25 05:52:43;;;;;;;4.90;1.80;;;;;;;;;;5020083;28;20285;-80
2022/02/25 05:55:09;;;;;;;4.17;1.70;;;;;;;;;;5038196;28;20224;-81
2022/02/25 05:57:35;;;;;;;5.83;1.53;;;;;;;;;;5020779;28;20557;-81
2022/02/25 06:00:02;;;;;;;4.80;1.70;;;;;;;;;;5038374;28;20195;-81
2022/02/25 06:02:28;;;;;;;4.30;1.57;;;;;;;;;;5020529;28;20206;-80
2022/02/25 06:04:53;;;;;;;3.07;1.83;;;;;;;;;;5019885;28;20183;-80
2022/02/25 06:07:20;;;;;;;2.93;1.83;;;;;;;;;;5037849;28;20183;-80
2022/02/25 06:09:45;;;;;;;3.77;1.67;;;;;;;;;;5018574;28;20186;-80
2022/02/25 06:12:11;;;;;;;4.43;1.80;;;;;;;;;;5035569;28;20264;-80
2022/02/25 06:14:37;;;;;;;4.50;1.80;;;;;;;;;;5037436;28;20713;-80
2022/02/25 06:17:04;;;;;;;3.97;2.03;;;;;;;;;;5037836;28;20179;-80
2022/02/25 06:19:30;;;;;;;3.03;1.50;;;;;;;;;;5037459;28;20723;-80
2022/02/25 06:21:56;;;;;;;4.27;1.50;;;;;;;;;;5004823;28;20249;-80
2022/02/25 06:24:22;;;;;;;4.80;2.17;;;;;;;;;;5037938;28;20258;-80
2022/02/25 06:26:48;;;;;;;6.93;1.67;;;;;;;;;;5032596;28;20206;-80
2022/02/25 06:29:14;;;;;;;6.50;2.10;;;;;;;;;;5030832;28;20268;-82
2022/02/25 06:31:42;;;;;;;2.87;1.53;;;;;;;;;;5038075;28;20696;-80
2022/02/25 06:34:08;;;;;;;4.50;1.60;;;;;;;;;;5038041;28;20233;-82
2022/02/25 06:36:34;;;;;;;5.00;1.63;;;;;;;;;;5037940;28;20178;-82
2022/02/25 06:39:00;;;;;;;2.60;1.67;;;;;;;;;;5036434;28;20347;-82
2022/02/25 06:41:26;;;;;;;6.50;2.10;;;;;;;;;;5018470;28;20216;-81
2022/02/25 06:43:52;;;;;;;4.43;1.80;;;;;;;;;;5036385;28;20243;-82
2022/02/25 06:46:18;;;;;;;3.97;1.67;;;;;;;;;;5036217;28;20231;-81
2022/02/25 06:48:44;;;;;;;3.77;1.60;;;;;;;;;;5019450;28;20340;-82
2022/02/25 06:51:11;;;;;;;4.07;1.90;;;;;;;;;;5036920;28;20199;-81
2022/02/25 06:53:37;;;;;;;5.07;1.80;;;;;;;;;;5036894;28;20202;-81
2022/02/25 06:56:03;;;;;;;4.50;1.60;;;;;;;;;;5019642;28;20704;-81
2022/02/25 06:58:29;;;;;;;4.90;2.00;;;;;;;;;;5036732;28;20334;-82
2022/02/25 07:00:55;;;;;;;5.30;1.77;;;;;;;;;;5019365;28;20201;-82
2022/02/25 07:03:22;;;;;;;6.83;2.13;;;;;;;;;;5037741;28;20198;-82
2022/02/25 07:05:48;;;;;;;5.03;2.20;;;;;;;;;;5036449;28;20228;-82
2022/02/25 07:08:14;;;;;;;7.47;2.07;;;;;;;;;;5037349;28;20208;-82
2022/02/25 07:10:41;;;;;;;3.40;1.80;;;;;;;;;;5013627;28;20266;-81
2022/02/25 07:13:08;;;;;;;4.70;1.63;;;;;;;;;;5019286;28;20213;-82
2022/02/25 07:15:34;;;;;;;5.10;1.80;;;;;;;;;;5037724;28;20182;-82
2022/02/25 07:18:00;;;;;;;5.57;1.80;;;;;;;;;;5020316;28;20187;-82
2022/02/25 07:20:27;;;;;;;4.47;1.77;;;;;;;;;;5037531;28;20289;-82
2022/02/25 07:22:53;;;;;;;3.40;2.10;;;;;;;;;;5020030;28;20568;-80
2022/02/25 07:25:19;;;;;;;4.57;1.87;;;;;;;;;;5037744;28;20174;-82
2022/02/25 07:27:45;;;;;;;3.40;1.90;;;;;;;;;;5036890;28;20182;-80
2022/02/25 07:30:12;;;;;;;5.30;2.10;;;;;;;;;;5019408;28;20563;-80
2022/02/25 07:32:38;;;;;;;7.17;1.90;;;;;;;;;;5035611;28;20198;-80
2022/02/25 07:35:04;;;;;;;5.53;2.07;;;;;;;;;;5035580;28;20630;-80
2022/02/25 07:37:31;;;;;;;4.10;1.80;;;;;;;;;;5036761;28;20657;-80
2022/02/25 07:39:57;;;;;;;3.83;2.13;;;;;;;;;;5019142;28;20285;-80
2022/02/25 07:42:23;;;;;;;5.23;2.00;;;;;;;;;;5036489;28;20245;-80
2022/02/25 07:44:49;;;;;;;3.47;2.03;;;;;;;;;;5036708;28;20197;-80
2022/02/25 07:47:19;;;;;;;6.73;1.77;;;;;;;;;;5018762;28;20175;-80
2022/02/25 07:49:46;;;;;;;7.50;2.23;;;;;;;;;;5036643;28;20604;-80
2022/02/25 07:52:12;;;;;;;7.80;1.73;;;;;;;;;;5018468;28;20240;-80
2022/02/25 07:54:38;;;;;;;5.90;1.80;;;;;;;;;;5036736;28;20263;-80
2022/02/25 07:57:04;;;;;;;6.03;1.80;;;;;;;;;;5018306;28;20658;-80
2022/02/25 07:59:30;;;;;;;5.30;1.80;;;;;;;;;;5036581;28;20559;-80
2022/02/25 08:01:56;;;;;;;7.30;2.00;;;;;;;;;;5036644;28;20263;-82
2022/02/25 08:04:23;;;;;;;4.93;1.60;;;;;;;;;;5035557;28;20607;-82
2022/02/25 08:06:51;;;;;;;4.67;1.63;;;;;;;;;;5024561;28;20170;-82
2022/02/25 08:09:17;;;;;;;8.50;1.83;;;;;;;;;;5036927;28;20195;-82
2022/02/25 08:11:43;;;;;;;6.07;2.07;;;;;;;;;;5034804;28;20251;-80
2022/02/25 08:14:12;;;;;;;5.50;1.60;;;;;;;;;;5026321;28;20183;-80
2022/02/25 08:16:39;;;;;;;4.90;1.30;;;;;;;;;;5033950;28;20576;-82
2022/02/25 08:19:06;;;;;;;3.40;1.47;;;;;;;;;;5025827;28;20180;-80
2022/02/25 08:24:04;;;;;;;3.30;1.20;;;;;;;;;;5035559;28;20225;-81
2022/02/25 08:26:39;;;;;;;5.50;1.47;;;;;;;;;;5036117;28;20305;-81
2022/02/25 08:29:11;;;;;;;1.77;1.07;;;;;;;;;;5035306;28;20179;-81
2022/02/25 08:31:43;;;;;;;2.83;1.30;;;;;;;;;;5035500;28;20258;-81
2022/02/25 08:34:15;;;;;;;6.57;1.70;;;;;;;;;;5032819;28;20169;-82
2022/02/25 08:36:44;;;;;;;4.83;1.60;;;;;;;;;;5035170;28;20548;-81
2022/02/25 08:39:34;;;;;;;2.40;1.50;;;;;;;;;;5034697;28;20646;-82
2022/02/25 08:42:04;;;;;;;4.20;1.40;;;;;;;;;;5033920;28;20221;-82
2022/02/25 08:44:36;;;;;;;6.50;1.57;;;;;;;;;;5026350;28;20574;-81
2022/02/25 08:47:05;;;;;;;4.73;1.50;;;;;;;;;;5000575;28;20215;-81
2022/02/25 08:49:32;;;;;;;5.93;1.37;;;;;;;;;;5034352;28;20196;-82
2022/02/25 08:52:00;;;;;;;6.63;1.27;;;;;;;;;;5019410;28;20199;-82
2022/02/25 08:54:26;;;;;;;4.37;0.93;;;;;;;;;;5019044;28;20652;-81
2022/02/25 08:57:00;;;;;;;2.90;1.27;;;;;;;;;;5036237;28;20189;-82
2022/02/25 08:59:29;;;;;;;4.13;1.10;;;;;;;;;;5036039;28;20249;-81
2022/02/25 09:01:58;;;;;;;4.73;1.33;;;;;;;;;;5034720;28;20204;-81
2022/02/25 09:04:32;;;;;;;4.87;1.20;;;;;;;;;;5033348;28;20178;-81
2022/02/25 09:07:00;;;;;;;2.37;0.90;;;;;;;;;;5035731;28;20256;-81
2022/02/25 09:09:40;;;;;;;5.87;1.30;;;;;;;;;;5021364;28;20657;-81
2022/02/25 09:12:16;;;;;;;7.30;1.80;;;;;;;;;;5038726;28;20218;-81
2022/02/25 09:14:43;;;;;;;9.27;1.63;;;;;;;;;;5031497;28;20214;-81
2022/02/25 09:17:57;;;;;;;;;;;;;;;;;;;;;
2022/02/25 09:20:59;;;;;;;7.70;1.77;;;;;;;;;;5034797;28;20203;-81
2022/02/25 09:23:40;;;;;;;4.00;1.30;;;;;;;;;;4952038;29;20645;-81
2022/02/25 09:29:10;;;;;;;3.57;1.50;;;;;;;;;;5036150;28;20196;-82
2022/02/25 09:31:39;;;;;;;3.20;1.63;;;;;;;;;;5034779;28;20242;-82
2022/02/25 09:34:25;;;;;;;6.70;1.60;;;;;;;;;;5039354;28;20184;-81
2022/02/25 09:37:34;;;;;;;;;;;;;;;;;;;;;
2022/02/25 09:40:11;;;;;;;5.57;1.87;;;;;;;;;;5032118;28;20249;-81
2022/02/25 09:42:40;;;;;;;6.13;1.47;;;;;;;;;;5042112;28;20229;-82
2022/02/25 09:45:16;;;;;;;3.20;1.27;;;;;;;;;;5040932;28;20180;-82
2022/02/25 09:47:42;;;;;;;4.70;1.80;;;;;;;;;;5029244;28;20191;-82
2022/02/25 09:50:11;;;;;;;3.97;1.30;;;;;;;;;;5023514;28;20192;-82
2022/02/25 09:53:04;;;;;;;3.17;1.57;;;;;;;;;;5039772;28;20235;-82
2022/02/25 09:55:54;;;;;;;4.17;1.13;;;;;;;;;;5034784;28;20188;-82
2022/02/25 09:58:54;;;;;;;8.07;1.20;;;;;;;;;;5020511;28;20610;-82
2022/02/25 10:01:42;;;;;;;5.53;1.23;;;;;;;;;;5028626;28;20242;-81
2022/02/25 10:04:17;;;;;;;4.93;1.53;;;;;;;;;;5039586;28;20183;-81
2022/02/25 10:07:07;;;;;;;5.43;1.30;;;;;;;;;;5038210;28;20216;-81
2022/02/25 10:09:42;;;;;;;10.43;2.83;;;;;;;;;;5026714;28;20178;-81
2022/02/25 10:12:32;;;;;;;7.70;2.00;;;;;;;;;;5027399;28;20198;-81
2022/02/25 10:15:15;;;;;;;6.17;1.50;;;;;;;;;;4991325;28;20657;-81
2022/02/25 10:17:41;;;;;;;6.00;1.37;;;;;;;;;;5024551;28;20165;-81
2022/02/25 10:20:08;;;;;;;4.03;1.30;;;;;;;;;;5032149;28;20200;-81
2022/02/25 10:22:35;;;;;;;3.87;1.40;;;;;;;;;;5016748;28;20223;-81
2022/02/25 10:25:09;;;;;;;6.40;1.60;;;;;;;;;;5005521;28;20276;-81
2022/02/25 10:27:37;;;;;;;5.50;1.77;;;;;;;;;;5069625;22;20274;-85
2022/02/25 10:30:06;;;;;;;4.17;1.53;;;;;;;;;;5040304;28;20185;-80
2022/02/25 10:32:35;;;;;;;3.80;1.27;;;;;;;;;;5051774;28;20781;-80
2022/02/25 10:35:18;;;;;;;2.90;1.27;;;;;;;;;;5052404;28;20245;-80
2022/02/25 10:37:56;;;;;;;2.60;1.00;;;;;;;;;;5053546;28;20199;-81
2022/02/25 10:40:23;;;;;;;3.60;1.13;;;;;;;;;;5042588;28;20200;-83
2022/02/25 10:42:49;;;;;;;5.07;1.43;;;;;;;;;;5045421;28;20184;-81
2022/02/25 10:45:26;;;;;;;4.40;1.17;;;;;;;;;;5021501;28;20184;-79
2022/02/25 10:47:52;;;;;;;5.50;1.30;;;;;;;;;;5023425;28;20198;-80
2022/02/25 10:50:20;;;;;;;3.97;1.00;;;;;;;;;;5043245;28;20270;-81
2022/02/25 10:52:48;;;;;;;6.10;1.70;;;;;;;;;;5027274;28;20275;-81
2022/02/25 10:55:18;;;;;;;5.93;2.10;;;;;;;;;;5042846;28;20197;-81
2022/02/25 10:57:44;;;;;;;9.23;2.30;;;;;;;;;;5050718;28;20211;-81
2022/02/25 11:00:12;;;;;;;4.50;1.20;;;;;;;;;;5045248;28;20205;-81
2022/02/25 11:02:38;;;;;;;4.70;1.43;;;;;;;;;;5044713;28;20213;-81
2022/02/25 11:05:07;;;;;;;6.47;0.73;;;;;;;;;;5044964;28;20183;-80
2022/02/25 11:07:34;;;;;;;5.13;1.47;;;;;;;;;;5044861;28;20180;-80
2022/02/25 11:10:00;;;;;;;3.03;0.93;;;;;;;;;;5044237;28;20189;-81
2022/02/25 11:12:30;;;;;;;4.80;1.30;;;;;;;;;;5046721;28;20185;-82
2022/02/25 11:14:57;;;;;;;4.00;1.20;;;;;;;;;;5059245;28;20187;-81
2022/02/25 11:20:03;;;;;;;5.57;1.10;;;;;;;;;;5467106;22;20281;-81
2022/02/25 11:22:30;;;;;;;3.47;1.10;;;;;;;;;;5039934;28;20192;-82
2022/02/25 11:24:57;;;;;;;5.77;1.10;;;;;;;;;;5037081;28;20177;-82
2022/02/25 11:27:23;;;;;;;5.23;1.00;;;;;;;;;;5044329;28;20552;-81
2022/02/25 11:30:07;;;;;;;2.00;1.00;;;;;;;;;;5042309;28;20196;-81
2022/02/25 11:32:55;;;;;;;5.17;1.00;;;;;;;;;;5035259;28;20191;-80
2022/02/25 11:35:24;;;;;;;3.87;1.17;;;;;;;;;;5047085;28;20179;-81
2022/02/25 11:37:51;;;;;;;14.27;1.60;;;;;;;;;;5036429;28;20214;-81
2022/02/25 11:40:20;;;;;;;4.40;1.00;;;;;;;;;;5041221;28;20286;-81
2022/02/25 11:42:51;;;;;;;5.20;1.20;;;;;;;;;;5034805;28;20204;-82
2022/02/25 11:45:20;;;;;;;3.37;0.80;;;;;;;;;;5031422;28;20187;-81
2022/02/25 11:47:50;;;;;;;4.13;0.83;;;;;;;;;;5035867;28;20200;-83
2022/02/25 11:50:30;;;;;;;4.70;1.23;;;;;;;;;;5038115;28;20268;-81
2022/02/25 11:53:16;;;;;;;4.30;0.80;;;;;;;;;;5036079;28;20659;-82
2022/02/25 11:55:42;;;;;;;2.47;0.90;;;;;;;;;;5041581;28;20204;-82
2022/02/25 11:58:27;;;;;;;3.10;0.93;;;;;;;;;;5041206;28;20204;-81
2022/02/25 12:01:06;;;;;;;4.03;1.10;;;;;;;;;;5042010;28;20202;-82
2022/02/25 12:03:35;;;;;;;4.23;1.40;;;;;;;;;;5047966;28;20177;-81
2022/02/25 12:06:02;;;;;;;3.67;1.20;;;;;;;;;;5038184;28;20174;-82
2022/02/25 12:08:29;;;;;;;4.13;1.30;;;;;;;;;;5041973;28;20291;-81
2022/02/25 12:10:59;;;;;;;4.57;0.80;;;;;;;;;;5040113;28;20174;-81
2022/02/25 12:13:27;;;;;;;3.57;1.07;;;;;;;;;;5043400;28;20197;-82
2022/02/25 12:15:53;;;;;;;4.27;1.00;;;;;;;;;;5041900;28;20637;-81
2022/02/25 12:18:19;;;;;;;3.43;1.30;;;;;;;;;;5040604;28;20215;-81
2022/02/25 12:20:50;;;;;;;2.60;1.10;;;;;;;;;;5040702;28;20296;-80
2022/02/25 12:23:42;;;;;;;2.47;0.97;;;;;;;;;;5041181;28;20518;-81
2022/02/25 12:26:10;;;;;;;3.70;0.83;;;;;;;;;;5037497;28;20195;-81
2022/02/25 12:28:47;;;;;;;1.57;0.60;;;;;;;;;;5036939;28;20197;-82
2022/02/25 12:31:17;;;;;;;4.50;0.80;;;;;;;;;;5038711;28;20219;-82
2022/02/25 12:33:44;;;;;;;5.57;1.00;;;;;;;;;;5039080;28;20632;-81
2022/02/25 12:36:28;;;;;;;3.90;1.00;;;;;;;;;;5040251;28;20664;-81
2022/02/25 12:38:58;;;;;;;5.67;1.40;;;;;;;;;;5038410;28;20204;-82
2022/02/25 12:41:25;;;;;;;2.40;0.90;;;;;;;;;;5025697;28;20691;-81
2022/02/25 12:43:58;;;;;;;4.83;1.23;;;;;;;;;;5028488;28;20655;-81
2022/02/25 12:46:25;;;;;;;6.13;1.30;;;;;;;;;;5035373;28;20182;-83
2022/02/25 12:48:51;;;;;;;2.80;0.80;;;;;;;;;;5030235;28;20266;-82
2022/02/25 12:51:18;;;;;;;4.53;0.90;;;;;;;;;;5030803;28;20644;-80
2022/02/25 12:53:52;;;;;;;2.73;1.30;;;;;;;;;;5026789;28;20209;-80
2022/02/25 12:56:19;;;;;;;6.43;1.77;;;;;;;;;;5037908;28;20186;-81
2022/02/25 12:58:45;;;;;;;4.70;1.83;;;;;;;;;;5037950;28;20249;-81
2022/02/25 13:01:22;;;;;;;6.50;2.40;;;;;;;;;;5038064;28;20194;-81
2022/02/25 13:04:04;;;;;;;6.27;2.73;;;;;;;;;;5039744;28;20185;-81
2022/02/25 13:06:30;;;;;;;5.33;1.03;;;;;;;;;;5040314;28;20169;-81
2022/02/25 13:08:59;;;;;;;4.53;1.10;;;;;;;;;;5020815;28;20310;-81
2022/02/25 13:11:26;;;;;;;7.90;2.27;;;;;;;;;;5039728;28;20552;-83
2022/02/25 13:13:53;;;;;;;2.80;1.10;;;;;;;;;;5038943;28;20200;-82
2022/02/25 13:16:22;;;;;;;2.60;0.90;;;;;;;;;;5021537;28;20188;-81
2022/02/25 13:18:48;;;;;;;4.23;0.90;;;;;;;;;;5025787;28;20727;-81
2022/02/25 13:21:14;;;;;;;3.17;1.03;;;;;;;;;;5043310;28;20221;-81
2022/02/25 13:23:48;;;;;;;3.40;1.20;;;;;;;;;;5029048;28;20184;-81
2022/02/25 13:26:20;;;;;;;3.27;1.43;;;;;;;;;;5038303;28;20661;-81
2022/02/25 13:28:46;;;;;;;5.10;1.30;;;;;;;;;;5040790;28;20251;-81
2022/02/25 13:31:12;;;;;;;3.17;1.20;;;;;;;;;;5027391;28;20191;-81
2022/02/25 13:33:38;;;;;;;5.83;1.70;;;;;;;;;;5039235;28;20181;-80
2022/02/25 13:36:06;;;;;;;3.83;1.40;;;;;;;;;;5039719;28;20189;-82
2022/02/25 13:38:33;;;;;;;5.10;2.17;;;;;;;;;;5040427;28;20204;-80
2022/02/25 13:41:02;;;;;;;3.20;1.30;;;;;;;;;;5039632;28;20257;-81
2022/02/25 13:43:28;;;;;;;4.67;2.20;;;;;;;;;;5037338;28;20215;-81
2022/02/25 13:46:27;;;;;;;3.20;1.73;;;;;;;;;;5035653;28;20175;-84
2022/02/25 13:54:42;;;;;;;5.83;1.80;;;;;;;;;;5043666;28;20186;-80
2022/02/25 13:57:12;;;;;;;7.57;1.20;;;;;;;;;;5042981;28;20187;-81
2022/02/25 13:59:49;;;;;;;4.83;1.23;;;;;;;;;;5041861;28;20210;-80
2022/02/25 14:02:16;;;;;;;3.60;1.47;;;;;;;;;;5044843;28;20174;-81
2022/02/25 14:04:49;;;;;;;7.50;1.40;;;;;;;;;;5047587;28;20178;-81
2022/02/25 14:07:16;;;;;;;3.70;1.17;;;;;;;;;;5038163;28;20166;-79
2022/02/25 14:09:47;;;;;;;5.13;1.30;;;;;;;;;;5043548;28;20184;-81
2022/02/25 14:12:15;;;;;;;6.20;1.30;;;;;;;;;;5049288;28;20190;-81
2022/02/25 14:14:43;;;;;;;4.77;1.10;;;;;;;;;;5028707;28;20169;-81
2022/02/25 14:17:23;;;;;;;3.17;1.27;;;;;;;;;;5041327;28;20687;-81
2022/02/25 14:20:03;;;;;;;7.37;4.63;;;;;;;;;;5043652;28;20196;-81
2022/02/25 14:22:31;;;;;;;5.13;0.90;;;;;;;;;;5036019;28;20652;-82
2022/02/25 14:24:57;;;;;;;6.00;1.00;;;;;;;;;;5039994;28;20173;-82
2022/02/25 14:27:23;;;;;;;4.80;1.20;;;;;;;;;;5038462;28;20188;-82
2022/02/25 14:30:00;;;;;;;2.57;1.03;;;;;;;;;;5043149;28;20174;-81
2022/02/25 14:32:26;;;;;;;3.47;0.97;;;;;;;;;;5042156;28;20189;-82
2022/02/25 14:34:52;;;;;;;3.53;1.00;;;;;;;;;;5044127;28;20193;-83
2022/02/25 14:37:29;;;;;;;2.93;1.20;;;;;;;;;;5042673;28;20664;-82
2022/02/25 14:39:58;;;;;;;3.13;0.70;;;;;;;;;;5042376;28;20201;-82
2022/02/25 14:42:27;;;;;;;4.63;1.37;;;;;;;;;;5041338;28;20228;-81
2022/02/25 14:44:54;;;;;;;4.60;0.90;;;;;;;;;;5034992;28;20213;-83
2022/02/25 14:47:20;;;;;;;3.73;1.00;;;;;;;;;;5039143;28;20176;-85
2022/02/25 14:49:46;;;;;;;2.23;1.20;;;;;;;;;;5043944;28;20304;-84
2022/02/25 14:52:15;;;;;;;1.70;0.83;;;;;;;;;;5058150;28;20174;-83
2022/02/25 14:54:41;;;;;;;3.73;1.00;;;;;;;;;;5028767;28;20242;-83
2022/02/25 14:57:08;;;;;;;4.87;1.23;;;;;;;;;;5042363;28;20530;-84
2022/02/25 14:59:34;;;;;;;3.23;0.80;;;;;;;;;;5035247;28;20199;-83
2022/02/25 15:02:01;;;;;;;2.87;0.87;;;;;;;;;;5028116;28;20244;-84
2022/02/25 15:04:27;;;;;;;2.13;0.90;;;;;;;;;;5043707;28;20171;-85
2022/02/25 15:06:53;;;;;;;4.23;0.97;;;;;;;;;;5036043;28;20208;-86
2022/02/25 15:09:19;;;;;;;3.47;1.17;;;;;;;;;;5040212;28;20206;-86
2022/02/25 15:11:45;;;;;;;3.07;1.10;;;;;;;;;;5046380;28;20186;-84
2022/02/25 15:14:14;;;;;;;2.83;1.13;;;;;;;;;;5049529;28;20184;-85